sensor_id;sensor_type;location;lat;lon;timestamp;noise_LAeq;noise_LA_min;noise_LA_max;noise_LA01;noise_LA95
67320;Laerm;57665;51.436;5.978;2023-04-03T00:00:03;39.64;38.64;40.63;;
67320;Laerm;57665;51.436;5.978;2023-04-03T00:00:13;39.64;38.55;40.43;;
67320;Laerm;57665;51.436;5.978;2023-04-03T00:00:23;39.64;38.56;40.61;;
67320;Laerm;57665;51.436;5.978;2023-04-03T00:00:36;39.58;38.55;40.63;;
67320;Laerm;57665;51.436;5.978;2023-04-03T00:00:46;39.63;38.57;40.70;;
67320;Laerm;57665;51.436;5.978;2023-04-03T00:00:57;39.62;38.43;40.59;;
67320;Laerm;57665;51.436;5.978;2023-04-03T00:01:07;39.79;38.94;40.66;;
67320;Laerm;57665;51.436;5.978;2023-04-03T00:01:20;39.74;38.64;40.61;;
67320;Laerm;57665;51.436;5.978;2023-04-03T00:01:31;40.66;38.77;42.74;;
67320;Laerm;57665;51.436;5.978;2023-04-03T00:01:41;61.33;40.85;69.96;;
67320;Laerm;57665;51.436;5.978;2023-04-03T00:01:57;67.72;63.07;71.67;;
67320;Laerm;57665;51.436;5.978;2023-04-03T00:02:07;61.88;40.34;69.02;;
67320;Laerm;57665;51.436;5.978;2023-04-03T00:02:18;40.58;39.18;42.26;;
67320;Laerm;57665;51.436;5.978;2023-04-03T00:02:28;39.90;38.87;41.16;;
67320;Laerm;57665;51.436;5.978;2023-04-03T00:02:38;39.73;38.60;40.58;;
67320;Laerm;57665;51.436;5.978;2023-04-03T00:02:50;39.75;38.87;40.69;;
67320;Laerm;57665;51.436;5.978;2023-04-03T00:03:00;39.71;38.84;40.70;;
67320;Laerm;57665;51.436;5.978;2023-04-03T00:03:10;39.67;38.51;40.73;;
67320;Laerm;57665;51.436;5.978;2023-04-03T00:03:21;39.62;38.62;40.43;;
67320;Laerm;57665;51.436;5.978;2023-04-03T00:03:31;39.70;38.73;40.64;;
67320;Laerm;57665;51.436;5.978;2023-04-03T00:03:44;39.68;38.72;40.60;;
67320;Laerm;57665;51.436;5.978;2023-04-03T00:03:55;39.66;38.60;40.89;;
67320;Laerm;57665;51.436;5.978;2023-04-03T00:04:05;39.67;38.57;40.72;;
67320;Laerm;57665;51.436;5.978;2023-04-03T00:04:16;39.73;38.83;40.57;;
67320;Laerm;57665;51.436;5.978;2023-04-03T00:04:28;39.68;38.72;40.72;;
67320;Laerm;57665;51.436;5.978;2023-04-03T00:04:38;39.66;38.27;40.49;;
67320;Laerm;57665;51.436;5.978;2023-04-03T00:04:49;39.67;38.53;40.83;;
67320;Laerm;57665;51.436;5.978;2023-04-03T00:05:00;39.72;38.64;40.56;;
67320;Laerm;57665;51.436;5.978;2023-04-03T00:05:10;39.65;38.54;40.65;;
67320;Laerm;57665;51.436;5.978;2023-04-03T00:05:32;39.69;38.74;40.65;;
67320;Laerm;57665;51.436;5.978;2023-04-03T00:05:42;39.67;38.74;40.60;;
67320;Laerm;57665;51.436;5.978;2023-04-03T00:05:53;39.67;38.71;41.12;;
67320;Laerm;57665;51.436;5.978;2023-04-03T00:06:10;39.68;38.47;40.63;;
67320;Laerm;57665;51.436;5.978;2023-04-03T00:06:21;39.64;38.52;40.47;;
67320;Laerm;57665;51.436;5.978;2023-04-03T00:06:31;39.66;38.85;40.63;;
67320;Laerm;57665;51.436;5.978;2023-04-03T00:06:42;39.64;38.37;40.47;;
67320;Laerm;57665;51.436;5.978;2023-04-03T00:06:52;39.63;38.70;40.48;;
67320;Laerm;57665;51.436;5.978;2023-04-03T00:07:02;39.65;38.60;40.53;;
67320;Laerm;57665;51.436;5.978;2023-04-03T00:07:15;39.64;38.37;40.62;;
67320;Laerm;57665;51.436;5.978;2023-04-03T00:07:25;39.65;38.66;41.00;;
67320;Laerm;57665;51.436;5.978;2023-04-03T00:07:35;39.64;38.69;40.59;;
67320;Laerm;57665;51.436;5.978;2023-04-03T00:07:45;39.64;38.37;40.61;;
67320;Laerm;57665;51.436;5.978;2023-04-03T00:07:55;39.65;38.78;40.70;;
67320;Laerm;57665;51.436;5.978;2023-04-03T00:08:06;39.64;38.70;40.67;;
67320;Laerm;57665;51.436;5.978;2023-04-03T00:08:18;39.67;38.55;40.59;;
67320;Laerm;57665;51.436;5.978;2023-04-03T00:08:28;39.69;38.78;40.85;;
67320;Laerm;57665;51.436;5.978;2023-04-03T00:08:40;39.66;38.70;40.77;;
67320;Laerm;57665;51.436;5.978;2023-04-03T00:08:51;39.68;38.78;40.58;;
67320;Laerm;57665;51.436;5.978;2023-04-03T00:09:02;39.69;38.79;40.52;;
67320;Laerm;57665;51.436;5.978;2023-04-03T00:09:12;39.69;38.41;40.61;;
67320;Laerm;57665;51.436;5.978;2023-04-03T00:09:22;39.70;38.78;40.68;;
67320;Laerm;57665;51.436;5.978;2023-04-03T00:09:53;39.69;38.56;40.96;;
67320;Laerm;57665;51.436;5.978;2023-04-03T00:10:03;39.67;38.63;40.65;;
67320;Laerm;57665;51.436;5.978;2023-04-03T00:10:14;39.66;38.59;40.66;;
67320;Laerm;57665;51.436;5.978;2023-04-03T00:10:25;39.73;38.64;40.75;;
67320;Laerm;57665;51.436;5.978;2023-04-03T00:10:36;39.71;38.49;40.61;;
67320;Laerm;57665;51.436;5.978;2023-04-03T00:10:46;39.67;38.73;40.71;;
67320;Laerm;57665;51.436;5.978;2023-04-03T00:10:56;39.70;38.82;40.68;;
67320;Laerm;57665;51.436;5.978;2023-04-03T00:11:07;39.72;38.47;40.86;;
67320;Laerm;57665;51.436;5.978;2023-04-03T00:11:18;39.68;38.52;40.81;;
67320;Laerm;57665;51.436;5.978;2023-04-03T00:11:28;39.66;38.59;40.67;;
67320;Laerm;57665;51.436;5.978;2023-04-03T00:11:38;39.67;38.66;40.75;;
67320;Laerm;57665;51.436;5.978;2023-04-03T00:11:49;39.67;38.53;40.73;;
67320;Laerm;57665;51.436;5.978;2023-04-03T00:11:59;39.63;38.42;40.63;;
67320;Laerm;57665;51.436;5.978;2023-04-03T00:12:10;39.65;38.50;40.44;;
67320;Laerm;57665;51.436;5.978;2023-04-03T00:12:20;39.67;38.32;40.73;;
67320;Laerm;57665;51.436;5.978;2023-04-03T00:12:31;39.66;38.76;40.40;;
67320;Laerm;57665;51.436;5.978;2023-04-03T00:12:41;39.64;38.73;40.76;;
67320;Laerm;57665;51.436;5.978;2023-04-03T00:12:51;39.62;38.50;40.59;;
67320;Laerm;57665;51.436;5.978;2023-04-03T00:13:02;39.66;38.71;40.71;;
67320;Laerm;57665;51.436;5.978;2023-04-03T00:13:13;39.67;38.70;40.80;;
67320;Laerm;57665;51.436;5.978;2023-04-03T00:13:32;39.65;38.55;40.70;;
67320;Laerm;57665;51.436;5.978;2023-04-03T00:13:43;39.64;38.62;40.61;;
67320;Laerm;57665;51.436;5.978;2023-04-03T00:13:56;39.66;38.40;40.85;;
67320;Laerm;57665;51.436;5.978;2023-04-03T00:14:06;39.62;38.75;40.43;;
67320;Laerm;57665;51.436;5.978;2023-04-03T00:14:16;39.65;38.23;40.60;;
67320;Laerm;57665;51.436;5.978;2023-04-03T00:14:29;39.63;38.28;40.78;;
67320;Laerm;57665;51.436;5.978;2023-04-03T00:14:39;39.67;38.72;40.85;;
67320;Laerm;57665;51.436;5.978;2023-04-03T00:14:50;39.62;38.69;40.60;;
67320;Laerm;57665;51.436;5.978;2023-04-03T00:15:00;39.67;38.77;40.53;;
67320;Laerm;57665;51.436;5.978;2023-04-03T00:15:10;39.66;38.45;40.60;;
67320;Laerm;57665;51.436;5.978;2023-04-03T00:15:21;39.68;38.61;40.67;;
67320;Laerm;57665;51.436;5.978;2023-04-03T00:15:40;39.68;38.59;40.63;;
67320;Laerm;57665;51.436;5.978;2023-04-03T00:15:51;39.68;38.66;40.53;;
67320;Laerm;57665;51.436;5.978;2023-04-03T00:16:01;39.68;38.63;40.54;;
67320;Laerm;57665;51.436;5.978;2023-04-03T00:16:13;39.65;38.54;41.18;;
67320;Laerm;57665;51.436;5.978;2023-04-03T00:16:23;39.65;38.65;40.56;;
67320;Laerm;57665;51.436;5.978;2023-04-03T00:16:33;39.61;38.60;41.13;;
67320;Laerm;57665;51.436;5.978;2023-04-03T00:16:44;39.66;38.58;40.54;;
67320;Laerm;57665;51.436;5.978;2023-04-03T00:16:56;39.62;38.49;40.81;;
67320;Laerm;57665;51.436;5.978;2023-04-03T00:17:07;39.65;38.59;40.96;;
67320;Laerm;57665;51.436;5.978;2023-04-03T00:17:17;39.61;38.69;40.52;;
67320;Laerm;57665;51.436;5.978;2023-04-03T00:17:27;39.69;38.57;40.59;;
67320;Laerm;57665;51.436;5.978;2023-04-03T00:17:37;39.65;38.60;40.74;;
67320;Laerm;57665;51.436;5.978;2023-04-03T00:17:48;39.67;38.77;40.46;;
67320;Laerm;57665;51.436;5.978;2023-04-03T00:17:58;39.67;38.76;40.51;;
67320;Laerm;57665;51.436;5.978;2023-04-03T00:18:08;39.66;38.55;40.56;;
67320;Laerm;57665;51.436;5.978;2023-04-03T00:18:18;39.68;38.69;40.58;;
67320;Laerm;57665;51.436;5.978;2023-04-03T00:18:29;39.75;38.75;40.70;;
67320;Laerm;57665;51.436;5.978;2023-04-03T00:18:39;39.78;38.87;40.83;;
67320;Laerm;57665;51.436;5.978;2023-04-03T00:18:50;39.69;38.61;40.51;;
67320;Laerm;57665;51.436;5.978;2023-04-03T00:19:00;39.74;38.85;40.70;;
67320;Laerm;57665;51.436;5.978;2023-04-03T00:19:10;39.68;38.56;40.42;;
67320;Laerm;57665;51.436;5.978;2023-04-03T00:19:21;39.67;38.63;40.70;;
67320;Laerm;57665;51.436;5.978;2023-04-03T00:19:32;39.61;38.58;40.49;;
67320;Laerm;57665;51.436;5.978;2023-04-03T00:19:42;39.63;38.72;40.70;;
67320;Laerm;57665;51.436;5.978;2023-04-03T00:19:52;39.68;38.60;40.77;;
67320;Laerm;57665;51.436;5.978;2023-04-03T00:20:03;39.64;38.77;40.68;;
67320;Laerm;57665;51.436;5.978;2023-04-03T00:20:13;39.65;38.60;40.58;;
67320;Laerm;57665;51.436;5.978;2023-04-03T00:20:23;39.64;38.52;40.65;;
67320;Laerm;57665;51.436;5.978;2023-04-03T00:20:34;39.64;38.76;40.75;;
67320;Laerm;57665;51.436;5.978;2023-04-03T00:20:44;39.61;38.33;40.52;;
67320;Laerm;57665;51.436;5.978;2023-04-03T00:20:55;39.68;38.63;40.75;;
67320;Laerm;57665;51.436;5.978;2023-04-03T00:21:05;39.82;38.92;40.87;;
67320;Laerm;57665;51.436;5.978;2023-04-03T00:21:16;39.76;38.83;41.02;;
67320;Laerm;57665;51.436;5.978;2023-04-03T00:21:26;39.83;38.60;41.05;;
67320;Laerm;57665;51.436;5.978;2023-04-03T00:21:52;62.25;39.20;76.06;;
67320;Laerm;57665;51.436;5.978;2023-04-03T00:22:03;71.42;65.91;74.58;;
67320;Laerm;57665;51.436;5.978;2023-04-03T00:22:13;69.67;53.16;77.96;;
67320;Laerm;57665;51.436;5.978;2023-04-03T00:22:23;47.91;41.70;54.07;;
67320;Laerm;57665;51.436;5.978;2023-04-03T00:22:34;40.72;38.60;43.03;;
67320;Laerm;57665;51.436;5.978;2023-04-03T00:22:44;39.71;38.46;40.62;;
67320;Laerm;57665;51.436;5.978;2023-04-03T00:22:57;39.67;38.82;40.63;;
67320;Laerm;57665;51.436;5.978;2023-04-03T00:23:07;39.62;38.51;40.52;;
67320;Laerm;57665;51.436;5.978;2023-04-03T00:23:17;39.69;38.68;40.59;;
67320;Laerm;57665;51.436;5.978;2023-04-03T00:23:34;39.68;38.62;40.67;;
67320;Laerm;57665;51.436;5.978;2023-04-03T00:24:00;39.64;38.63;40.62;;
67320;Laerm;57665;51.436;5.978;2023-04-03T00:24:17;39.69;38.83;40.54;;
67320;Laerm;57665;51.436;5.978;2023-04-03T00:24:27;39.67;38.63;40.66;;
67320;Laerm;57665;51.436;5.978;2023-04-03T00:24:55;39.63;38.15;40.51;;
67320;Laerm;57665;51.436;5.978;2023-04-03T00:25:06;39.70;38.52;40.74;;
67320;Laerm;57665;51.436;5.978;2023-04-03T00:25:22;39.70;38.84;40.67;;
67320;Laerm;57665;51.436;5.978;2023-04-03T00:25:34;39.68;38.44;40.68;;
67320;Laerm;57665;51.436;5.978;2023-04-03T00:25:45;39.69;38.79;40.52;;
67320;Laerm;57665;51.436;5.978;2023-04-03T00:26:04;39.69;38.34;40.82;;
67320;Laerm;57665;51.436;5.978;2023-04-03T00:26:14;39.67;38.56;40.59;;
67320;Laerm;57665;51.436;5.978;2023-04-03T00:26:25;39.68;38.66;40.68;;
67320;Laerm;57665;51.436;5.978;2023-04-03T00:26:35;39.67;38.57;40.59;;
67320;Laerm;57665;51.436;5.978;2023-04-03T00:26:45;39.70;38.66;40.61;;
67320;Laerm;57665;51.436;5.978;2023-04-03T00:26:55;39.68;38.68;40.63;;
67320;Laerm;57665;51.436;5.978;2023-04-03T00:27:06;39.68;38.69;40.70;;
67320;Laerm;57665;51.436;5.978;2023-04-03T00:27:19;39.70;38.53;40.51;;
67320;Laerm;57665;51.436;5.978;2023-04-03T00:27:29;39.65;38.61;40.54;;
67320;Laerm;57665;51.436;5.978;2023-04-03T00:27:39;39.64;38.43;40.48;;
67320;Laerm;57665;51.436;5.978;2023-04-03T00:27:50;39.63;38.49;40.55;;
67320;Laerm;57665;51.436;5.978;2023-04-03T00:28:00;39.64;38.69;40.56;;
67320;Laerm;57665;51.436;5.978;2023-04-03T00:28:11;39.70;38.70;40.88;;
67320;Laerm;57665;51.436;5.978;2023-04-03T00:28:21;39.70;38.66;40.83;;
67320;Laerm;57665;51.436;5.978;2023-04-03T00:28:31;39.63;38.59;40.64;;
67320;Laerm;57665;51.436;5.978;2023-04-03T00:28:42;39.64;38.68;40.53;;
67320;Laerm;57665;51.436;5.978;2023-04-03T00:28:52;39.65;38.79;40.62;;
67320;Laerm;57665;51.436;5.978;2023-04-03T00:29:02;39.67;38.33;40.60;;
67320;Laerm;57665;51.436;5.978;2023-04-03T00:29:12;39.64;38.50;40.54;;
67320;Laerm;57665;51.436;5.978;2023-04-03T00:29:23;39.63;38.83;40.74;;
67320;Laerm;57665;51.436;5.978;2023-04-03T00:29:33;39.61;38.74;40.61;;
67320;Laerm;57665;51.436;5.978;2023-04-03T00:29:43;39.72;39.03;40.74;;
67320;Laerm;57665;51.436;5.978;2023-04-03T00:29:53;39.88;38.72;40.97;;
67320;Laerm;57665;51.436;5.978;2023-04-03T00:30:04;39.86;38.73;40.99;;
67320;Laerm;57665;51.436;5.978;2023-04-03T00:30:15;39.86;38.81;41.02;;
67320;Laerm;57665;51.436;5.978;2023-04-03T00:30:26;40.27;39.06;41.76;;
67320;Laerm;57665;51.436;5.978;2023-04-03T00:30:36;43.65;39.92;53.66;;
67320;Laerm;57665;51.436;5.978;2023-04-03T00:30:48;71.44;51.13;76.92;;
67320;Laerm;57665;51.436;5.978;2023-04-03T00:30:58;72.71;68.71;78.81;;
67320;Laerm;57665;51.436;5.978;2023-04-03T00:31:09;67.21;44.81;78.48;;
67320;Laerm;57665;51.436;5.978;2023-04-03T00:31:19;43.57;39.61;46.91;;
67320;Laerm;57665;51.436;5.978;2023-04-03T00:31:29;40.06;38.99;41.27;;
67320;Laerm;57665;51.436;5.978;2023-04-03T00:31:40;39.78;38.63;40.92;;
67320;Laerm;57665;51.436;5.978;2023-04-03T00:31:50;39.66;38.49;40.58;;
67320;Laerm;57665;51.436;5.978;2023-04-03T00:32:00;39.62;38.44;40.74;;
67320;Laerm;57665;51.436;5.978;2023-04-03T00:32:13;39.65;38.46;40.55;;
67320;Laerm;57665;51.436;5.978;2023-04-03T00:32:24;39.64;38.70;40.68;;
67320;Laerm;57665;51.436;5.978;2023-04-03T00:32:34;39.64;38.78;40.81;;
67320;Laerm;57665;51.436;5.978;2023-04-03T00:32:44;39.64;38.29;40.77;;
67320;Laerm;57665;51.436;5.978;2023-04-03T00:32:55;39.66;38.63;40.57;;
67320;Laerm;57665;51.436;5.978;2023-04-03T00:33:05;39.66;38.67;40.57;;
67320;Laerm;57665;51.436;5.978;2023-04-03T00:33:16;39.65;38.51;40.56;;
67320;Laerm;57665;51.436;5.978;2023-04-03T00:33:27;39.61;38.46;40.50;;
67320;Laerm;57665;51.436;5.978;2023-04-03T00:33:37;39.63;38.59;40.69;;
67320;Laerm;57665;51.436;5.978;2023-04-03T00:33:47;39.68;38.43;40.59;;
67320;Laerm;57665;51.436;5.978;2023-04-03T00:33:57;39.64;38.31;40.65;;
67320;Laerm;57665;51.436;5.978;2023-04-03T00:34:10;39.69;38.76;40.81;;
67320;Laerm;57665;51.436;5.978;2023-04-03T00:34:20;39.64;38.48;40.56;;
67320;Laerm;57665;51.436;5.978;2023-04-03T00:34:31;39.70;38.52;40.74;;
67320;Laerm;57665;51.436;5.978;2023-04-03T00:34:41;39.65;38.53;40.60;;
67320;Laerm;57665;51.436;5.978;2023-04-03T00:34:51;39.63;38.81;40.53;;
67320;Laerm;57665;51.436;5.978;2023-04-03T00:35:02;39.68;38.71;40.44;;
67320;Laerm;57665;51.436;5.978;2023-04-03T00:35:12;39.69;38.72;40.91;;
67320;Laerm;57665;51.436;5.978;2023-04-03T00:35:25;39.62;38.60;40.67;;
67320;Laerm;57665;51.436;5.978;2023-04-03T00:35:36;39.65;38.30;40.67;;
67320;Laerm;57665;51.436;5.978;2023-04-03T00:35:46;39.63;38.61;40.59;;
67320;Laerm;57665;51.436;5.978;2023-04-03T00:35:56;39.63;38.51;40.51;;
67320;Laerm;57665;51.436;5.978;2023-04-03T00:36:07;39.71;38.89;40.51;;
67320;Laerm;57665;51.436;5.978;2023-04-03T00:36:17;39.63;38.59;40.68;;
67320;Laerm;57665;51.436;5.978;2023-04-03T00:36:28;39.62;38.57;40.56;;
67320;Laerm;57665;51.436;5.978;2023-04-03T00:36:38;39.64;38.44;40.55;;
67320;Laerm;57665;51.436;5.978;2023-04-03T00:36:48;39.62;38.59;40.46;;
67320;Laerm;57665;51.436;5.978;2023-04-03T00:36:58;39.61;38.48;40.54;;
67320;Laerm;57665;51.436;5.978;2023-04-03T00:37:09;39.63;38.69;40.81;;
67320;Laerm;57665;51.436;5.978;2023-04-03T00:37:19;39.62;38.52;40.57;;
67320;Laerm;57665;51.436;5.978;2023-04-03T00:37:29;39.63;38.79;40.70;;
67320;Laerm;57665;51.436;5.978;2023-04-03T00:37:41;39.64;38.65;40.61;;
67320;Laerm;57665;51.436;5.978;2023-04-03T00:37:51;39.63;38.50;40.61;;
67320;Laerm;57665;51.436;5.978;2023-04-03T00:38:03;39.60;38.64;40.65;;
67320;Laerm;57665;51.436;5.978;2023-04-03T00:38:13;39.63;38.52;40.64;;
67320;Laerm;57665;51.436;5.978;2023-04-03T00:38:23;39.62;38.77;40.46;;
67320;Laerm;57665;51.436;5.978;2023-04-03T00:38:34;39.65;38.51;41.11;;
67320;Laerm;57665;51.436;5.978;2023-04-03T00:38:44;39.63;38.56;40.54;;
67320;Laerm;57665;51.436;5.978;2023-04-03T00:39:00;39.60;38.59;40.45;;
67320;Laerm;57665;51.436;5.978;2023-04-03T00:39:11;39.63;38.16;40.79;;
67320;Laerm;57665;51.436;5.978;2023-04-03T00:39:21;39.62;38.60;40.84;;
67320;Laerm;57665;51.436;5.978;2023-04-03T00:39:31;39.65;38.25;40.51;;
67320;Laerm;57665;51.436;5.978;2023-04-03T00:39:50;39.62;38.61;40.74;;
67320;Laerm;57665;51.436;5.978;2023-04-03T00:40:01;39.65;38.44;40.50;;
67320;Laerm;57665;51.436;5.978;2023-04-03T00:40:12;39.61;38.56;40.37;;
67320;Laerm;57665;51.436;5.978;2023-04-03T00:40:24;39.60;38.36;40.36;;
67320;Laerm;57665;51.436;5.978;2023-04-03T00:40:36;39.57;38.57;40.69;;
67320;Laerm;57665;51.436;5.978;2023-04-03T00:40:47;39.61;38.54;40.58;;
67320;Laerm;57665;51.436;5.978;2023-04-03T00:40:58;39.60;38.66;40.57;;
67320;Laerm;57665;51.436;5.978;2023-04-03T00:41:08;39.59;38.49;40.56;;
67320;Laerm;57665;51.436;5.978;2023-04-03T00:41:18;39.63;38.51;40.65;;
67320;Laerm;57665;51.436;5.978;2023-04-03T00:41:28;39.62;38.48;40.69;;
67320;Laerm;57665;51.436;5.978;2023-04-03T00:41:39;39.60;38.60;40.73;;
67320;Laerm;57665;51.436;5.978;2023-04-03T00:41:49;39.58;38.71;40.46;;
67320;Laerm;57665;51.436;5.978;2023-04-03T00:41:59;39.58;38.43;40.42;;
67320;Laerm;57665;51.436;5.978;2023-04-03T00:42:10;39.61;38.56;40.49;;
67320;Laerm;57665;51.436;5.978;2023-04-03T00:42:20;39.63;38.80;40.56;;
67320;Laerm;57665;51.436;5.978;2023-04-03T00:42:31;39.60;38.61;40.57;;
67320;Laerm;57665;51.436;5.978;2023-04-03T00:42:41;39.59;38.46;40.32;;
67320;Laerm;57665;51.436;5.978;2023-04-03T00:42:57;39.64;38.38;40.57;;
67320;Laerm;57665;51.436;5.978;2023-04-03T00:43:11;39.60;38.37;40.60;;
67320;Laerm;57665;51.436;5.978;2023-04-03T00:43:23;39.61;38.43;40.56;;
67320;Laerm;57665;51.436;5.978;2023-04-03T00:43:34;39.63;38.40;40.68;;
67320;Laerm;57665;51.436;5.978;2023-04-03T00:43:44;39.61;38.57;40.63;;
67320;Laerm;57665;51.436;5.978;2023-04-03T00:43:55;39.61;38.62;40.37;;
67320;Laerm;57665;51.436;5.978;2023-04-03T00:44:21;39.59;38.64;40.37;;
67320;Laerm;57665;51.436;5.978;2023-04-03T00:45:26;40.21;38.76;41.81;;
67320;Laerm;57665;51.436;5.978;2023-04-03T00:45:37;39.75;38.66;41.16;;
67320;Laerm;57665;51.436;5.978;2023-04-03T00:45:50;39.63;38.42;40.47;;
67320;Laerm;57665;51.436;5.978;2023-04-03T00:46:00;39.62;38.68;40.57;;
67320;Laerm;57665;51.436;5.978;2023-04-03T00:46:10;39.64;38.66;40.70;;
67320;Laerm;57665;51.436;5.978;2023-04-03T00:46:21;39.61;38.62;40.67;;
67320;Laerm;57665;51.436;5.978;2023-04-03T00:46:31;39.67;38.59;40.79;;
67320;Laerm;57665;51.436;5.978;2023-04-03T00:46:41;39.61;38.67;40.72;;
67320;Laerm;57665;51.436;5.978;2023-04-03T00:46:51;39.60;38.34;40.62;;
67320;Laerm;57665;51.436;5.978;2023-04-03T00:47:02;39.61;38.81;40.63;;
67320;Laerm;57665;51.436;5.978;2023-04-03T00:47:14;39.63;38.68;40.56;;
67320;Laerm;57665;51.436;5.978;2023-04-03T00:47:25;39.65;38.73;40.45;;
67320;Laerm;57665;51.436;5.978;2023-04-03T00:47:37;39.64;38.49;40.99;;
67320;Laerm;57665;51.436;5.978;2023-04-03T00:47:48;39.61;38.68;40.60;;
67320;Laerm;57665;51.436;5.978;2023-04-03T00:48:00;39.59;38.48;40.56;;
67320;Laerm;57665;51.436;5.978;2023-04-03T00:48:11;39.61;38.43;40.64;;
67320;Laerm;57665;51.436;5.978;2023-04-03T00:48:40;39.61;38.47;40.62;;
67320;Laerm;57665;51.436;5.978;2023-04-03T00:48:51;39.62;38.76;40.55;;
67320;Laerm;57665;51.436;5.978;2023-04-03T00:49:01;39.60;38.67;40.54;;
67320;Laerm;57665;51.436;5.978;2023-04-03T00:49:12;39.60;38.64;40.86;;
67320;Laerm;57665;51.436;5.978;2023-04-03T00:49:22;39.60;38.37;40.37;;
67320;Laerm;57665;51.436;5.978;2023-04-03T00:49:32;39.59;38.00;40.51;;
67320;Laerm;57665;51.436;5.978;2023-04-03T00:49:43;39.61;38.54;40.71;;
67320;Laerm;57665;51.436;5.978;2023-04-03T00:49:54;39.62;38.81;40.55;;
67320;Laerm;57665;51.436;5.978;2023-04-03T00:50:05;39.60;38.57;40.57;;
67320;Laerm;57665;51.436;5.978;2023-04-03T00:50:15;39.60;38.63;40.67;;
67320;Laerm;57665;51.436;5.978;2023-04-03T00:50:26;39.61;38.44;40.66;;
67320;Laerm;57665;51.436;5.978;2023-04-03T00:50:37;39.63;38.53;40.56;;
67320;Laerm;57665;51.436;5.978;2023-04-03T00:50:48;39.57;38.31;40.49;;
67320;Laerm;57665;51.436;5.978;2023-04-03T00:50:59;39.60;38.56;40.49;;
67320;Laerm;57665;51.436;5.978;2023-04-03T00:51:11;39.57;38.69;40.60;;
67320;Laerm;57665;51.436;5.978;2023-04-03T00:51:23;39.60;38.63;40.60;;
67320;Laerm;57665;51.436;5.978;2023-04-03T00:51:34;39.61;38.40;40.58;;
67320;Laerm;57665;51.436;5.978;2023-04-03T00:51:45;39.62;38.47;40.49;;
67320;Laerm;57665;51.436;5.978;2023-04-03T00:51:58;39.65;38.54;40.48;;
67320;Laerm;57665;51.436;5.978;2023-04-03T00:52:10;39.63;38.43;40.50;;
67320;Laerm;57665;51.436;5.978;2023-04-03T00:52:23;39.59;38.11;40.72;;
67320;Laerm;57665;51.436;5.978;2023-04-03T00:52:35;39.62;38.57;40.91;;
67320;Laerm;57665;51.436;5.978;2023-04-03T00:52:47;39.64;38.72;40.86;;
67320;Laerm;57665;51.436;5.978;2023-04-03T00:52:59;39.61;38.54;40.59;;
67320;Laerm;57665;51.436;5.978;2023-04-03T00:53:11;39.60;38.67;40.67;;
67320;Laerm;57665;51.436;5.978;2023-04-03T00:53:24;39.73;38.59;40.78;;
67320;Laerm;57665;51.436;5.978;2023-04-03T00:53:37;39.80;38.91;40.98;;
67320;Laerm;57665;51.436;5.978;2023-04-03T00:53:59;64.38;43.04;71.29;;
67320;Laerm;57665;51.436;5.978;2023-04-03T00:54:10;70.76;64.35;80.56;;
67320;Laerm;57665;51.436;5.978;2023-04-03T00:54:21;64.86;42.36;72.47;;
67320;Laerm;57665;51.436;5.978;2023-04-03T00:54:32;41.36;39.56;45.29;;
67320;Laerm;57665;51.436;5.978;2023-04-03T00:54:42;40.32;39.27;41.37;;
67320;Laerm;57665;51.436;5.978;2023-04-03T00:54:54;39.94;38.98;40.98;;
67320;Laerm;57665;51.436;5.978;2023-04-03T00:55:07;39.73;38.65;40.83;;
67320;Laerm;57665;51.436;5.978;2023-04-03T00:55:21;39.72;38.80;40.66;;
67320;Laerm;57665;51.436;5.978;2023-04-03T00:55:32;39.63;38.56;40.80;;
67320;Laerm;57665;51.436;5.978;2023-04-03T00:55:44;39.65;38.37;40.49;;
67320;Laerm;57665;51.436;5.978;2023-04-03T00:55:55;39.66;38.57;40.89;;
67320;Laerm;57665;51.436;5.978;2023-04-03T00:56:06;39.65;38.45;40.56;;
67320;Laerm;57665;51.436;5.978;2023-04-03T00:56:19;39.64;38.62;40.75;;
67320;Laerm;57665;51.436;5.978;2023-04-03T00:56:34;39.59;38.53;40.73;;
67320;Laerm;57665;51.436;5.978;2023-04-03T00:56:45;39.64;38.48;40.51;;
67320;Laerm;57665;51.436;5.978;2023-04-03T00:56:55;39.59;38.56;40.62;;
67320;Laerm;57665;51.436;5.978;2023-04-03T00:57:07;39.59;38.50;40.59;;
67320;Laerm;57665;51.436;5.978;2023-04-03T00:57:17;39.60;38.54;40.43;;
67320;Laerm;57665;51.436;5.978;2023-04-03T00:57:28;39.56;38.77;40.34;;
67320;Laerm;57665;51.436;5.978;2023-04-03T00:57:43;39.60;38.73;40.70;;
67320;Laerm;57665;51.436;5.978;2023-04-03T00:57:54;39.59;38.43;40.49;;
67320;Laerm;57665;51.436;5.978;2023-04-03T00:58:08;39.57;38.45;40.57;;
67320;Laerm;57665;51.436;5.978;2023-04-03T00:58:19;39.59;38.69;40.62;;
67320;Laerm;57665;51.436;5.978;2023-04-03T00:58:34;39.55;38.38;40.61;;
67320;Laerm;57665;51.436;5.978;2023-04-03T00:58:48;39.58;38.35;40.44;;
67320;Laerm;57665;51.436;5.978;2023-04-03T00:59:04;39.57;38.57;40.51;;
67320;Laerm;57665;51.436;5.978;2023-04-03T00:59:26;39.61;38.41;40.71;;
67320;Laerm;57665;51.436;5.978;2023-04-03T00:59:39;39.60;38.55;40.57;;
67320;Laerm;57665;51.436;5.978;2023-04-03T00:59:53;39.63;38.56;40.61;;
67320;Laerm;57665;51.436;5.978;2023-04-03T01:00:06;39.59;38.53;40.53;;
67320;Laerm;57665;51.436;5.978;2023-04-03T01:00:20;39.60;38.43;40.62;;
67320;Laerm;57665;51.436;5.978;2023-04-03T01:00:32;39.65;38.71;40.65;;
67320;Laerm;57665;51.436;5.978;2023-04-03T01:00:43;39.58;38.35;40.50;;
67320;Laerm;57665;51.436;5.978;2023-04-03T01:01:00;39.62;38.68;40.48;;
67320;Laerm;57665;51.436;5.978;2023-04-03T01:01:15;39.59;38.30;40.45;;
67320;Laerm;57665;51.436;5.978;2023-04-03T01:01:27;39.58;38.51;40.47;;
67320;Laerm;57665;51.436;5.978;2023-04-03T01:01:38;39.61;38.61;40.47;;
67320;Laerm;57665;51.436;5.978;2023-04-03T01:01:49;39.84;38.78;40.78;;
67320;Laerm;57665;51.436;5.978;2023-04-03T01:01:59;39.83;38.72;40.72;;
67320;Laerm;57665;51.436;5.978;2023-04-03T01:02:10;39.86;38.82;40.78;;
67320;Laerm;57665;51.436;5.978;2023-04-03T01:02:20;39.93;39.03;40.95;;
67320;Laerm;57665;51.436;5.978;2023-04-03T01:02:30;40.37;39.31;41.37;;
67320;Laerm;57665;51.436;5.978;2023-04-03T01:02:47;42.82;39.69;50.41;;
67320;Laerm;57665;51.436;5.978;2023-04-03T01:02:57;69.17;48.53;76.18;;
67320;Laerm;57665;51.436;5.978;2023-04-03T01:03:07;68.75;66.33;73.06;;
67320;Laerm;57665;51.436;5.978;2023-04-03T01:03:18;60.33;42.44;68.91;;
67320;Laerm;57665;51.436;5.978;2023-04-03T01:03:28;41.37;39.44;44.77;;
67320;Laerm;57665;51.436;5.978;2023-04-03T01:03:38;39.79;38.71;40.68;;
67320;Laerm;57665;51.436;5.978;2023-04-03T01:03:48;39.67;38.66;40.63;;
67320;Laerm;57665;51.436;5.978;2023-04-03T01:03:59;39.60;38.60;40.70;;
67320;Laerm;57665;51.436;5.978;2023-04-03T01:04:39;39.57;38.37;40.62;;
67320;Laerm;57665;51.436;5.978;2023-04-03T01:04:50;39.59;38.38;40.39;;
67320;Laerm;57665;51.436;5.978;2023-04-03T01:05:01;39.57;38.65;40.57;;
67320;Laerm;57665;51.436;5.978;2023-04-03T01:05:11;39.59;38.55;40.44;;
67320;Laerm;57665;51.436;5.978;2023-04-03T01:05:22;39.58;38.16;40.45;;
67320;Laerm;57665;51.436;5.978;2023-04-03T01:05:32;39.57;38.65;40.32;;
67320;Laerm;57665;51.436;5.978;2023-04-03T01:05:43;39.57;38.44;40.59;;
67320;Laerm;57665;51.436;5.978;2023-04-03T01:05:53;39.55;38.53;40.51;;